Arthur, NE (69121)

12:27 AM MDT on October 02, 2014 (GMT -0600)
Searle | Change Station
CLOSE
Current Station
Airport
Location: Ogallala,
Elevation: 3278 ft
Nearby Weather Stations

Elev 3278 ft 41.12 °N, 101.77 °W | Updated 12 minutes ago

Overcast
Overcast
52 °F
Feels Like 52 °F
N
10
Wind Variable Wind from North

Today
High -- | Low -- °F
--% Chance of Precip.
Yesterday
High -- | Low -- °F
Precip. -- in
6:44 AM 6:26 PM
First Quarter, 55% visible
Pressure 29.98 in
Visibility 10.0 miles
Clouds Overcast 6000 ft
Dew Point 49 °F
Humidity 89%
Rainfall 0.00 in
Snow Depth Not available.
UV 0 out of 12
Pollen 4.00 out of 12
Air Quality Not available.
Flu Activity Not available.
METAR KOGA 020615Z AUTO 01009KT 10SM OVC060 11/09 A2998 RMK AO2 T01090092

More Conditions Fewer Conditions

Pressure 29.98 in
Visibility 10.0 miles
Clouds Overcast 6000 ft
Dew Point 49 °F
Humidity 89%
Rainfall 0.00 in
Snow Depth Not available.
UV 0 out of 12
Pollen 4.00 out of 12
Air Quality Not available.
Flu Activity Not available.
METAR KOGA 020615Z AUTO 01009KT 10SM OVC060 11/09 A2998 RMK AO2 T01090092

More Conditions Fewer Conditions

Nowcast | as of 11:22 PM CDT on October 1, 2014

A steady light to moderate rain will continue across much of the western sandhills and west central Nebraska through 1130 PM MDT (1230 am cdt).

×

10-Day Weather Forecast

Almanac

Astronomy

Oct. 02, 2014 Rise Set
Actual Time 6:44 AM MDT 6:26 PM MDT
Civil Twilight 6:17 AM MDT 6:54 PM MDT
Nautical Twilight 5:44 AM MDT 7:26 PM MDT
Astronomical Twilight 5:12 AM MDT 7:58 PM MDT
Moon 2:38 PM MDT No Moon Set
Length of Visible Light 12h 37m
Length of Day
11h 42m
Tomorrow will be 2m 45s shorter.
First Quarter, 55% of the Moon is Illuminated
Today
First Quarter
Oct 8
Full
Oct 15
Last Quarter
Oct 23
New
Oct 30
First Quarter

Today's Extremes

State Highs State Lows

Community

WunderPhotos

Upload Photos

1,758,198 photos uploaded!

WunderBlogs® & News

Nearby

Snow Depth

Station Depth Elevation
No new snow has been reported.

Earthquake Activity

City Distance Mag. Time & Date
No recent earthquake activity has been reported nearby.
Minimum magnitude displayed is 2.5.

Coastal Water Temperatures

Place Temperature
No Stations Reporting

Nearby Weather Stations